sensor_id;sensor_type;location;lat;lon;timestamp;pressure;altitude;pressure_sealevel;temperature;humidity
61296;BME280;47168;48.104;20.730;2022-09-06T00:01:23;100585.28;;;14.23;100.00
61296;BME280;47168;48.104;20.730;2022-09-06T00:03:48;100580.13;;;14.33;100.00
61296;BME280;47168;48.104;20.730;2022-09-06T00:06:16;100584.25;;;14.37;100.00
61296;BME280;47168;48.104;20.730;2022-09-06T00:08:43;100578.44;;;14.32;100.00
61296;BME280;47168;48.104;20.730;2022-09-06T00:11:09;100579.63;;;14.27;100.00
61296;BME280;47168;48.104;20.730;2022-09-06T00:13:35;100582.22;;;14.16;100.00
61296;BME280;47168;48.104;20.730;2022-09-06T00:16:09;100583.53;;;14.11;100.00
61296;BME280;47168;48.104;20.730;2022-09-06T00:18:35;100578.56;;;14.06;100.00
61296;BME280;47168;48.104;20.730;2022-09-06T00:21:02;100575.75;;;13.96;100.00
61296;BME280;47168;48.104;20.730;2022-09-06T00:23:27;100577.78;;;13.93;100.00
61296;BME280;47168;48.104;20.730;2022-09-06T00:26:00;100572.69;;;13.89;100.00
61296;BME280;47168;48.104;20.730;2022-09-06T00:28:26;100576.84;;;13.94;100.00
61296;BME280;47168;48.104;20.730;2022-09-06T00:30:51;100588.69;;;14.01;100.00
61296;BME280;47168;48.104;20.730;2022-09-06T00:33:16;100574.41;;;13.90;100.00
61296;BME280;47168;48.104;20.730;2022-09-06T00:35:42;100576.56;;;13.85;100.00
61296;BME280;47168;48.104;20.730;2022-09-06T00:38:11;100581.25;;;13.82;100.00
61296;BME280;47168;48.104;20.730;2022-09-06T00:40:36;100572.19;;;13.84;100.00
61296;BME280;47168;48.104;20.730;2022-09-06T00:43:02;100586.19;;;13.86;100.00
61296;BME280;47168;48.104;20.730;2022-09-06T00:45:28;100584.50;;;13.85;100.00
61296;BME280;47168;48.104;20.730;2022-09-06T00:47:54;100588.13;;;13.84;100.00
61296;BME280;47168;48.104;20.730;2022-09-06T00:50:20;100585.84;;;13.91;100.00
61296;BME280;47168;48.104;20.730;2022-09-06T00:52:47;100583.91;;;13.82;100.00
61296;BME280;47168;48.104;20.730;2022-09-06T00:55:15;100586.03;;;13.77;100.00
61296;BME280;47168;48.104;20.730;2022-09-06T00:57:41;100588.28;;;13.70;100.00
61296;BME280;47168;48.104;20.730;2022-09-06T01:00:07;100582.41;;;13.78;100.00
61296;BME280;47168;48.104;20.730;2022-09-06T01:02:34;100583.91;;;13.82;100.00
61296;BME280;47168;48.104;20.730;2022-09-06T01:05:00;100581.84;;;13.85;100.00
61296;BME280;47168;48.104;20.730;2022-09-06T01:10:55;100587.59;;;13.79;100.00
61296;BME280;47168;48.104;20.730;2022-09-06T01:13:38;100578.69;;;13.80;100.00
61296;BME280;47168;48.104;20.730;2022-09-06T01:19:51;100581.16;;;13.70;100.00
61296;BME280;47168;48.104;20.730;2022-09-06T01:30:17;100571.06;;;13.76;100.00
61296;BME280;47168;48.104;20.730;2022-09-06T01:32:59;100575.56;;;13.86;100.00
61296;BME280;47168;48.104;20.730;2022-09-06T01:35:39;100574.97;;;13.83;100.00
61296;BME280;47168;48.104;20.730;2022-09-06T01:38:08;100572.03;;;13.75;100.00
61296;BME280;47168;48.104;20.730;2022-09-06T01:40:34;100565.47;;;13.67;100.00
61296;BME280;47168;48.104;20.730;2022-09-06T01:43:02;100584.88;;;13.68;100.00
61296;BME280;47168;48.104;20.730;2022-09-06T01:51:32;100578.88;;;13.53;100.00
61296;BME280;47168;48.104;20.730;2022-09-06T02:07:12;100582.59;;;13.63;100.00
61296;BME280;47168;48.104;20.730;2022-09-06T02:09:41;100576.88;;;13.57;100.00
61296;BME280;47168;48.104;20.730;2022-09-06T02:12:10;100566.59;;;13.52;100.00
61296;BME280;47168;48.104;20.730;2022-09-06T02:14:47;100567.66;;;13.49;100.00
61296;BME280;47168;48.104;20.730;2022-09-06T02:17:17;100563.44;;;13.47;100.00
61296;BME280;47168;48.104;20.730;2022-09-06T02:19:51;100568.44;;;13.39;100.00
61296;BME280;47168;48.104;20.730;2022-09-06T02:22:21;100566.09;;;13.47;100.00
61296;BME280;47168;48.104;20.730;2022-09-06T02:24:48;100565.69;;;13.40;100.00
61296;BME280;47168;48.104;20.730;2022-09-06T02:27:15;100567.91;;;13.33;100.00
61296;BME280;47168;48.104;20.730;2022-09-06T02:29:41;100560.16;;;13.30;100.00
61296;BME280;47168;48.104;20.730;2022-09-06T02:32:09;100575.44;;;13.27;100.00
61296;BME280;47168;48.104;20.730;2022-09-06T02:34:39;100566.19;;;13.20;100.00
61296;BME280;47168;48.104;20.730;2022-09-06T02:37:05;100570.97;;;13.14;100.00
61296;BME280;47168;48.104;20.730;2022-09-06T02:39:31;100565.94;;;12.98;100.00
61296;BME280;47168;48.104;20.730;2022-09-06T02:41:57;100561.06;;;12.92;100.00
61296;BME280;47168;48.104;20.730;2022-09-06T02:44:23;100576.94;;;12.92;100.00
61296;BME280;47168;48.104;20.730;2022-09-06T02:46:49;100577.38;;;12.99;100.00
61296;BME280;47168;48.104;20.730;2022-09-06T02:49:14;100587.44;;;12.94;100.00
61296;BME280;47168;48.104;20.730;2022-09-06T02:51:40;100590.59;;;12.86;100.00
61296;BME280;47168;48.104;20.730;2022-09-06T02:54:06;100609.06;;;13.01;100.00
61296;BME280;47168;48.104;20.730;2022-09-06T02:56:32;100596.94;;;13.22;98.46
61296;BME280;47168;48.104;20.730;2022-09-06T02:58:58;100593.75;;;13.43;95.50
61296;BME280;47168;48.104;20.730;2022-09-06T03:01:24;100591.09;;;13.43;97.27
61296;BME280;47168;48.104;20.730;2022-09-06T03:03:50;100600.03;;;13.42;100.00
61296;BME280;47168;48.104;20.730;2022-09-06T03:06:16;100605.22;;;13.43;100.00
61296;BME280;47168;48.104;20.730;2022-09-06T03:08:41;100589.13;;;13.33;100.00
61296;BME280;47168;48.104;20.730;2022-09-06T03:11:06;100595.56;;;13.42;100.00
61296;BME280;47168;48.104;20.730;2022-09-06T03:13:32;100591.44;;;13.25;100.00
61296;BME280;47168;48.104;20.730;2022-09-06T03:15:58;100590.09;;;13.07;100.00
61296;BME280;47168;48.104;20.730;2022-09-06T03:18:26;100596.88;;;12.98;100.00
61296;BME280;47168;48.104;20.730;2022-09-06T03:20:53;100594.09;;;13.00;100.00
61296;BME280;47168;48.104;20.730;2022-09-06T03:23:20;100592.63;;;12.95;100.00
61296;BME280;47168;48.104;20.730;2022-09-06T03:25:46;100598.13;;;12.92;100.00
61296;BME280;47168;48.104;20.730;2022-09-06T03:28:12;100589.97;;;12.95;100.00
61296;BME280;47168;48.104;20.730;2022-09-06T03:30:38;100583.84;;;12.95;100.00
61296;BME280;47168;48.104;20.730;2022-09-06T03:33:04;100588.06;;;12.97;100.00
61296;BME280;47168;48.104;20.730;2022-09-06T03:35:29;100590.50;;;13.01;100.00
61296;BME280;47168;48.104;20.730;2022-09-06T03:37:55;100593.56;;;13.07;100.00
61296;BME280;47168;48.104;20.730;2022-09-06T03:40:20;100583.63;;;12.98;100.00
61296;BME280;47168;48.104;20.730;2022-09-06T03:42:46;100569.53;;;12.97;100.00
61296;BME280;47168;48.104;20.730;2022-09-06T03:45:11;100574.81;;;12.97;100.00
61296;BME280;47168;48.104;20.730;2022-09-06T03:47:37;100586.03;;;13.01;100.00
61296;BME280;47168;48.104;20.730;2022-09-06T03:50:03;100585.94;;;13.03;100.00
61296;BME280;47168;48.104;20.730;2022-09-06T03:52:29;100578.75;;;13.05;100.00
61296;BME280;47168;48.104;20.730;2022-09-06T03:54:54;100575.97;;;13.06;100.00
61296;BME280;47168;48.104;20.730;2022-09-06T03:57:19;100578.97;;;13.02;100.00
61296;BME280;47168;48.104;20.730;2022-09-06T03:59:45;100590.19;;;12.92;100.00
61296;BME280;47168;48.104;20.730;2022-09-06T04:02:10;100584.47;;;12.86;100.00
61296;BME280;47168;48.104;20.730;2022-09-06T04:04:36;100589.03;;;12.84;100.00
61296;BME280;47168;48.104;20.730;2022-09-06T04:07:02;100583.09;;;12.80;100.00
61296;BME280;47168;48.104;20.730;2022-09-06T04:09:27;100584.16;;;12.77;100.00
61296;BME280;47168;48.104;20.730;2022-09-06T04:11:52;100592.41;;;12.73;100.00
61296;BME280;47168;48.104;20.730;2022-09-06T04:14:18;100592.53;;;12.71;100.00
61296;BME280;47168;48.104;20.730;2022-09-06T04:16:43;100582.25;;;12.67;100.00
61296;BME280;47168;48.104;20.730;2022-09-06T04:19:09;100569.53;;;12.59;100.00
61296;BME280;47168;48.104;20.730;2022-09-06T04:21:34;100585.41;;;12.59;100.00
61296;BME280;47168;48.104;20.730;2022-09-06T04:24:00;100581.59;;;12.50;100.00
61296;BME280;47168;48.104;20.730;2022-09-06T04:26:25;100592.19;;;12.50;100.00
61296;BME280;47168;48.104;20.730;2022-09-06T04:28:51;100596.97;;;12.58;100.00
61296;BME280;47168;48.104;20.730;2022-09-06T04:31:16;100591.44;;;12.61;100.00
61296;BME280;47168;48.104;20.730;2022-09-06T04:33:42;100591.56;;;12.72;100.00
61296;BME280;47168;48.104;20.730;2022-09-06T04:36:09;100594.41;;;12.69;100.00
61296;BME280;47168;48.104;20.730;2022-09-06T04:38:37;100593.78;;;12.66;100.00
61296;BME280;47168;48.104;20.730;2022-09-06T04:41:03;100582.34;;;12.65;100.00
61296;BME280;47168;48.104;20.730;2022-09-06T04:43:29;100594.84;;;12.63;100.00
61296;BME280;47168;48.104;20.730;2022-09-06T04:45:54;100590.81;;;12.57;100.00
61296;BME280;47168;48.104;20.730;2022-09-06T04:48:20;100594.63;;;12.66;100.00
61296;BME280;47168;48.104;20.730;2022-09-06T04:50:45;100595.50;;;12.67;100.00
61296;BME280;47168;48.104;20.730;2022-09-06T04:53:11;100596.31;;;12.54;100.00
61296;BME280;47168;48.104;20.730;2022-09-06T04:55:36;100589.34;;;12.53;100.00
61296;BME280;47168;48.104;20.730;2022-09-06T04:58:02;100586.38;;;12.58;100.00
61296;BME280;47168;48.104;20.730;2022-09-06T05:00:30;100586.47;;;12.56;100.00
61296;BME280;47168;48.104;20.730;2022-09-06T05:02:56;100576.94;;;12.54;100.00
61296;BME280;47168;48.104;20.730;2022-09-06T05:05:22;100574.91;;;12.57;100.00
61296;BME280;47168;48.104;20.730;2022-09-06T05:07:52;100588.16;;;12.57;100.00
61296;BME280;47168;48.104;20.730;2022-09-06T05:10:18;100595.06;;;12.60;100.00
61296;BME280;47168;48.104;20.730;2022-09-06T05:12:47;100598.34;;;12.64;100.00
61296;BME280;47168;48.104;20.730;2022-09-06T05:15:12;100575.16;;;12.67;100.00
61296;BME280;47168;48.104;20.730;2022-09-06T05:17:38;100583.94;;;12.68;100.00
61296;BME280;47168;48.104;20.730;2022-09-06T05:20:03;100586.38;;;12.71;100.00
61296;BME280;47168;48.104;20.730;2022-09-06T05:22:29;100592.41;;;12.73;100.00
61296;BME280;47168;48.104;20.730;2022-09-06T05:24:54;100586.06;;;12.75;100.00
61296;BME280;47168;48.104;20.730;2022-09-06T05:27:19;100588.19;;;12.83;100.00
61296;BME280;47168;48.104;20.730;2022-09-06T05:29:45;100585.63;;;12.94;100.00
61296;BME280;47168;48.104;20.730;2022-09-06T05:32:11;100592.00;;;13.05;100.00
61296;BME280;47168;48.104;20.730;2022-09-06T05:34:36;100595.81;;;13.13;100.00
61296;BME280;47168;48.104;20.730;2022-09-06T05:37:01;100595.75;;;13.26;100.00
61296;BME280;47168;48.104;20.730;2022-09-06T05:39:27;100601.09;;;13.39;100.00
61296;BME280;47168;48.104;20.730;2022-09-06T05:41:52;100584.03;;;13.43;100.00
61296;BME280;47168;48.104;20.730;2022-09-06T05:44:18;100587.09;;;13.50;100.00
61296;BME280;47168;48.104;20.730;2022-09-06T05:46:44;100588.50;;;13.67;100.00
61296;BME280;47168;48.104;20.730;2022-09-06T05:49:10;100593.34;;;13.73;100.00
61296;BME280;47168;48.104;20.730;2022-09-06T05:51:37;100585.63;;;13.70;100.00
61296;BME280;47168;48.104;20.730;2022-09-06T05:54:02;100586.38;;;13.72;100.00
61296;BME280;47168;48.104;20.730;2022-09-06T05:56:28;100591.34;;;13.77;100.00
61296;BME280;47168;48.104;20.730;2022-09-06T05:58:53;100584.94;;;13.79;100.00
61296;BME280;47168;48.104;20.730;2022-09-06T06:01:28;100585.47;;;13.84;100.00
61296;BME280;47168;48.104;20.730;2022-09-06T06:04:01;100591.44;;;13.99;100.00
61296;BME280;47168;48.104;20.730;2022-09-06T06:06:31;100587.25;;;14.08;100.00
61296;BME280;47168;48.104;20.730;2022-09-06T06:08:57;100577.69;;;14.18;100.00
61296;BME280;47168;48.104;20.730;2022-09-06T06:11:23;100577.81;;;14.28;100.00
61296;BME280;47168;48.104;20.730;2022-09-06T06:13:50;100571.19;;;14.34;100.00
61296;BME280;47168;48.104;20.730;2022-09-06T06:16:17;100579.81;;;14.49;100.00
61296;BME280;47168;48.104;20.730;2022-09-06T06:18:44;100580.59;;;14.62;100.00
61296;BME280;47168;48.104;20.730;2022-09-06T06:21:15;100574.56;;;14.71;100.00
61296;BME280;47168;48.104;20.730;2022-09-06T06:23:43;100567.09;;;14.88;100.00
61296;BME280;47168;48.104;20.730;2022-09-06T06:26:09;100566.50;;;15.07;100.00
61296;BME280;47168;48.104;20.730;2022-09-06T06:28:36;100568.56;;;15.26;100.00
61296;BME280;47168;48.104;20.730;2022-09-06T06:31:03;100564.31;;;15.46;100.00
61296;BME280;47168;48.104;20.730;2022-09-06T06:33:29;100563.19;;;15.48;100.00
61296;BME280;47168;48.104;20.730;2022-09-06T06:35:59;100570.19;;;15.72;100.00
61296;BME280;47168;48.104;20.730;2022-09-06T06:38:32;100560.72;;;15.90;89.92
61296;BME280;47168;48.104;20.730;2022-09-06T06:40:59;100565.69;;;16.16;86.79
61296;BME280;47168;48.104;20.730;2022-09-06T06:43:25;100572.72;;;16.17;85.97
61296;BME280;47168;48.104;20.730;2022-09-06T06:45:50;100569.84;;;16.09;90.79
61296;BME280;47168;48.104;20.730;2022-09-06T06:48:16;100568.47;;;16.15;90.58
61296;BME280;47168;48.104;20.730;2022-09-06T06:50:41;100569.84;;;16.30;90.58
61296;BME280;47168;48.104;20.730;2022-09-06T06:53:07;100575.50;;;16.37;82.04
61296;BME280;47168;48.104;20.730;2022-09-06T06:55:32;100565.44;;;16.40;79.67
61296;BME280;47168;48.104;20.730;2022-09-06T06:57:58;100561.81;;;16.41;79.96
61296;BME280;47168;48.104;20.730;2022-09-06T07:00:24;100575.06;;;16.53;90.66
61296;BME280;47168;48.104;20.730;2022-09-06T07:02:49;100573.31;;;16.84;85.54
61296;BME280;47168;48.104;20.730;2022-09-06T07:05:15;100578.50;;;16.85;83.04
61296;BME280;47168;48.104;20.730;2022-09-06T07:07:40;100579.50;;;16.84;79.80
61296;BME280;47168;48.104;20.730;2022-09-06T07:10:06;100580.44;;;16.83;76.56
61296;BME280;47168;48.104;20.730;2022-09-06T07:12:31;100581.78;;;16.89;86.77
61296;BME280;47168;48.104;20.730;2022-09-06T07:14:56;100574.47;;;16.91;83.38
61296;BME280;47168;48.104;20.730;2022-09-06T07:17:22;100580.13;;;16.98;83.02
61296;BME280;47168;48.104;20.730;2022-09-06T07:19:47;100575.38;;;17.01;78.01
61296;BME280;47168;48.104;20.730;2022-09-06T07:22:13;100569.63;;;17.06;73.01
61296;BME280;47168;48.104;20.730;2022-09-06T07:24:38;100575.41;;;17.11;72.54
61296;BME280;47168;48.104;20.730;2022-09-06T07:27:03;100561.25;;;17.20;78.96
61296;BME280;47168;48.104;20.730;2022-09-06T07:29:29;100576.91;;;17.35;82.49
61296;BME280;47168;48.104;20.730;2022-09-06T07:31:55;100567.06;;;17.35;74.85
61296;BME280;47168;48.104;20.730;2022-09-06T07:34:22;100566.13;;;17.46;76.12
61296;BME280;47168;48.104;20.730;2022-09-06T07:36:53;100561.91;;;17.53;73.41
61296;BME280;47168;48.104;20.730;2022-09-06T07:39:18;100571.50;;;17.56;75.46
61296;BME280;47168;48.104;20.730;2022-09-06T07:41:44;100560.97;;;17.64;72.26
61296;BME280;47168;48.104;20.730;2022-09-06T07:44:09;100569.59;;;17.87;72.58
61296;BME280;47168;48.104;20.730;2022-09-06T07:46:35;100572.53;;;17.84;67.47
61296;BME280;47168;48.104;20.730;2022-09-06T07:49:03;100574.19;;;17.85;69.38
61296;BME280;47168;48.104;20.730;2022-09-06T07:51:28;100576.91;;;17.95;67.78
61296;BME280;47168;48.104;20.730;2022-09-06T07:53:54;100570.88;;;17.93;65.36
61296;BME280;47168;48.104;20.730;2022-09-06T07:56:21;100571.28;;;17.98;68.16
61296;BME280;47168;48.104;20.730;2022-09-06T07:58:47;100578.28;;;18.58;66.20
61296;BME280;47168;48.104;20.730;2022-09-06T08:01:35;100569.38;;;18.86;66.88
61296;BME280;47168;48.104;20.730;2022-09-06T08:04:03;100563.47;;;18.73;62.77
61296;BME280;47168;48.104;20.730;2022-09-06T08:06:31;100572.63;;;18.70;67.64
61296;BME280;47168;48.104;20.730;2022-09-06T08:08:57;100565.28;;;18.73;61.40
61296;BME280;47168;48.104;20.730;2022-09-06T08:11:25;100571.81;;;19.07;69.81
61296;BME280;47168;48.104;20.730;2022-09-06T08:13:52;100568.66;;;19.77;63.98
61296;BME280;47168;48.104;20.730;2022-09-06T08:16:19;100566.22;;;20.02;58.87
61296;BME280;47168;48.104;20.730;2022-09-06T08:18:49;100562.00;;;19.99;61.79
61296;BME280;47168;48.104;20.730;2022-09-06T08:21:15;100562.41;;;19.87;58.66
61296;BME280;47168;48.104;20.730;2022-09-06T08:23:46;100560.31;;;19.80;60.65
61296;BME280;47168;48.104;20.730;2022-09-06T08:26:13;100557.13;;;19.95;58.07
61296;BME280;47168;48.104;20.730;2022-09-06T08:28:38;100557.88;;;19.87;57.94
61296;BME280;47168;48.104;20.730;2022-09-06T08:31:09;100550.06;;;19.76;60.13
61296;BME280;47168;48.104;20.730;2022-09-06T08:33:35;100552.75;;;19.94;70.09
61296;BME280;47168;48.104;20.730;2022-09-06T08:36:02;100546.63;;;20.46;59.15
61296;BME280;47168;48.104;20.730;2022-09-06T08:38:28;100548.25;;;21.17;60.82
61296;BME280;47168;48.104;20.730;2022-09-06T08:40:54;100542.06;;;21.68;65.17
61296;BME280;47168;48.104;20.730;2022-09-06T08:43:30;100530.50;;;21.83;53.39
61296;BME280;47168;48.104;20.730;2022-09-06T08:45:55;100537.22;;;22.12;54.64
61296;BME280;47168;48.104;20.730;2022-09-06T08:48:27;100532.03;;;22.27;55.44
61296;BME280;47168;48.104;20.730;2022-09-06T08:53:34;100526.63;;;23.16;56.92
61296;BME280;47168;48.104;20.730;2022-09-06T08:56:21;100524.59;;;23.18;48.60
61296;BME280;47168;48.104;20.730;2022-09-06T08:59:01;100518.34;;;22.70;49.20
61296;BME280;47168;48.104;20.730;2022-09-06T09:01:36;100518.28;;;22.94;57.93
61296;BME280;47168;48.104;20.730;2022-09-06T09:04:12;100518.97;;;23.36;47.44
61296;BME280;47168;48.104;20.730;2022-09-06T09:06:39;100518.41;;;23.49;48.67
61296;BME280;47168;48.104;20.730;2022-09-06T09:09:06;100523.47;;;23.04;47.60
61296;BME280;47168;48.104;20.730;2022-09-06T09:11:33;100520.03;;;22.79;49.29
61296;BME280;47168;48.104;20.730;2022-09-06T09:16:52;100507.47;;;22.55;49.73
61296;BME280;47168;48.104;20.730;2022-09-06T09:19:19;100506.63;;;22.63;48.46
61296;BME280;47168;48.104;20.730;2022-09-06T09:21:44;100515.38;;;22.40;49.35
61296;BME280;47168;48.104;20.730;2022-09-06T09:24:12;100512.34;;;22.60;54.73
61296;BME280;47168;48.104;20.730;2022-09-06T09:26:49;100512.44;;;22.83;48.07
61296;BME280;47168;48.104;20.730;2022-09-06T09:29:17;100506.47;;;22.48;46.84
61296;BME280;47168;48.104;20.730;2022-09-06T09:31:53;100510.69;;;22.17;51.89
61296;BME280;47168;48.104;20.730;2022-09-06T09:34:32;100508.66;;;22.52;50.12
61296;BME280;47168;48.104;20.730;2022-09-06T09:37:21;100500.69;;;22.75;49.08
61296;BME280;47168;48.104;20.730;2022-09-06T09:39:49;100497.91;;;22.52;48.22
61296;BME280;47168;48.104;20.730;2022-09-06T09:42:32;100491.53;;;22.12;49.39
61296;BME280;47168;48.104;20.730;2022-09-06T09:45:00;100497.41;;;21.91;49.54
61296;BME280;47168;48.104;20.730;2022-09-06T09:47:29;100491.53;;;21.96;50.76
61296;BME280;47168;48.104;20.730;2022-09-06T09:49:55;100480.78;;;22.12;52.94
61296;BME280;47168;48.104;20.730;2022-09-06T09:52:29;100483.81;;;22.34;48.73
61296;BME280;47168;48.104;20.730;2022-09-06T09:54:58;100485.63;;;22.50;49.67
61296;BME280;47168;48.104;20.730;2022-09-06T09:57:24;100471.28;;;22.74;48.13
61296;BME280;47168;48.104;20.730;2022-09-06T09:59:51;100483.50;;;23.56;48.55
61296;BME280;47168;48.104;20.730;2022-09-06T10:02:24;100474.50;;;24.10;43.69
61296;BME280;47168;48.104;20.730;2022-09-06T10:04:59;100472.53;;;24.56;43.35
61296;BME280;47168;48.104;20.730;2022-09-06T10:07:26;100471.88;;;24.54;43.53
61296;BME280;47168;48.104;20.730;2022-09-06T10:12:33;100474.88;;;24.59;49.31
61296;BME280;47168;48.104;20.730;2022-09-06T10:15:00;100474.53;;;24.99;50.75
61296;BME280;47168;48.104;20.730;2022-09-06T10:19:51;100459.47;;;25.05;42.56
61296;BME280;47168;48.104;20.730;2022-09-06T10:22:42;100457.78;;;25.04;42.49
61296;BME280;47168;48.104;20.730;2022-09-06T10:31:16;100444.47;;;25.02;43.55
61296;BME280;47168;48.104;20.730;2022-09-06T10:34:24;100445.97;;;24.30;46.50
61296;BME280;47168;48.104;20.730;2022-09-06T10:39:53;100441.72;;;25.32;47.77
61296;BME280;47168;48.104;20.730;2022-09-06T10:45:00;100430.09;;;26.24;39.73
61296;BME280;47168;48.104;20.730;2022-09-06T10:47:32;100427.34;;;27.01;40.46
61296;BME280;47168;48.104;20.730;2022-09-06T10:50:02;100423.50;;;27.37;36.46
61296;BME280;47168;48.104;20.730;2022-09-06T10:52:40;100416.84;;;26.36;38.89
61296;BME280;47168;48.104;20.730;2022-09-06T10:55:13;100423.25;;;26.00;44.34
61296;BME280;47168;48.104;20.730;2022-09-06T10:57:54;100415.91;;;27.06;39.02
61296;BME280;47168;48.104;20.730;2022-09-06T11:00:20;100411.00;;;27.49;36.11
61296;BME280;47168;48.104;20.730;2022-09-06T11:03:04;100413.44;;;27.24;44.40
61296;BME280;47168;48.104;20.730;2022-09-06T11:05:36;100408.09;;;27.78;36.37
61296;BME280;47168;48.104;20.730;2022-09-06T11:08:20;100395.78;;;27.35;35.67
61296;BME280;47168;48.104;20.730;2022-09-06T11:10:48;100402.94;;;26.94;36.97
61296;BME280;47168;48.104;20.730;2022-09-06T11:13:18;100385.97;;;26.66;36.17
61296;BME280;47168;48.104;20.730;2022-09-06T11:18:59;100385.78;;;27.62;35.31
61296;BME280;47168;48.104;20.730;2022-09-06T11:21:34;100385.38;;;27.52;34.43
61296;BME280;47168;48.104;20.730;2022-09-06T11:28:57;100371.78;;;27.25;34.19
61296;BME280;47168;48.104;20.730;2022-09-06T11:31:29;100366.81;;;27.35;34.23
61296;BME280;47168;48.104;20.730;2022-09-06T11:34:03;100368.66;;;27.22;34.89
61296;BME280;47168;48.104;20.730;2022-09-06T11:39:03;100355.09;;;26.12;35.89
61296;BME280;47168;48.104;20.730;2022-09-06T11:41:32;100359.25;;;26.14;37.03
61296;BME280;47168;48.104;20.730;2022-09-06T11:43:59;100355.13;;;26.60;37.48
61296;BME280;47168;48.104;20.730;2022-09-06T11:51:39;100352.66;;;26.65;37.31
61296;BME280;47168;48.104;20.730;2022-09-06T11:54:29;100337.16;;;27.21;36.84
61296;BME280;47168;48.104;20.730;2022-09-06T11:57:01;100344.09;;;27.37;35.44
61296;BME280;47168;48.104;20.730;2022-09-06T12:02:02;100338.00;;;27.88;36.89
61296;BME280;47168;48.104;20.730;2022-09-06T12:07:29;100320.09;;;27.20;34.44
61296;BME280;47168;48.104;20.730;2022-09-06T12:09:56;100316.50;;;26.38;35.43
61296;BME280;47168;48.104;20.730;2022-09-06T12:12:41;100319.22;;;27.06;36.10
61296;BME280;47168;48.104;20.730;2022-09-06T12:15:28;100322.81;;;27.27;35.96
61296;BME280;47168;48.104;20.730;2022-09-06T12:17:55;100315.31;;;27.49;35.06
61296;BME280;47168;48.104;20.730;2022-09-06T12:25:59;100303.81;;;28.00;34.86
61296;BME280;47168;48.104;20.730;2022-09-06T12:31:00;100295.03;;;28.95;34.84
61296;BME280;47168;48.104;20.730;2022-09-06T12:33:44;100297.78;;;29.21;33.44
61296;BME280;47168;48.104;20.730;2022-09-06T12:36:26;100284.34;;;29.51;33.97
61296;BME280;47168;48.104;20.730;2022-09-06T12:39:09;100275.44;;;29.87;33.25
61296;BME280;47168;48.104;20.730;2022-09-06T12:41:48;100273.28;;;30.26;31.92
61296;BME280;47168;48.104;20.730;2022-09-06T12:44:16;100262.09;;;30.16;30.82
61296;BME280;47168;48.104;20.730;2022-09-06T12:46:47;100260.28;;;30.10;34.48
61296;BME280;47168;48.104;20.730;2022-09-06T12:49:14;100259.91;;;30.06;32.19
61296;BME280;47168;48.104;20.730;2022-09-06T12:51:41;100262.50;;;30.01;31.92
61296;BME280;47168;48.104;20.730;2022-09-06T12:54:23;100264.22;;;30.14;31.25
61296;BME280;47168;48.104;20.730;2022-09-06T12:56:49;100250.22;;;29.73;31.40
61296;BME280;47168;48.104;20.730;2022-09-06T12:59:23;100244.19;;;29.71;31.91
61296;BME280;47168;48.104;20.730;2022-09-06T13:02:05;100250.59;;;29.59;33.52
61296;BME280;47168;48.104;20.730;2022-09-06T13:04:45;100237.16;;;29.64;33.82
61296;BME280;47168;48.104;20.730;2022-09-06T13:07:14;100243.66;;;29.63;33.07
61296;BME280;47168;48.104;20.730;2022-09-06T13:09:45;100240.50;;;29.22;34.53
61296;BME280;47168;48.104;20.730;2022-09-06T13:12:27;100239.88;;;29.20;32.73
61296;BME280;47168;48.104;20.730;2022-09-06T13:14:56;100234.25;;;29.15;33.60
61296;BME280;47168;48.104;20.730;2022-09-06T13:17:26;100237.56;;;29.24;33.37
61296;BME280;47168;48.104;20.730;2022-09-06T13:19:52;100231.88;;;28.68;33.65
61296;BME280;47168;48.104;20.730;2022-09-06T13:22:40;100240.31;;;28.85;36.43
61296;BME280;47168;48.104;20.730;2022-09-06T13:25:13;100245.66;;;28.98;34.18
61296;BME280;47168;48.104;20.730;2022-09-06T13:27:43;100239.56;;;28.39;33.21
61296;BME280;47168;48.104;20.730;2022-09-06T13:30:37;100248.50;;;28.01;34.86
61296;BME280;47168;48.104;20.730;2022-09-06T13:33:07;100249.34;;;28.02;34.36
61296;BME280;47168;48.104;20.730;2022-09-06T13:35:49;100245.81;;;27.95;36.04
61296;BME280;47168;48.104;20.730;2022-09-06T13:44:28;100241.84;;;27.90;34.92
61296;BME280;47168;48.104;20.730;2022-09-06T13:46:54;100231.06;;;27.70;36.47
61296;BME280;47168;48.104;20.730;2022-09-06T13:49:20;100230.91;;;27.45;37.54
61296;BME280;47168;48.104;20.730;2022-09-06T13:51:47;100215.88;;;27.09;37.04
61296;BME280;47168;48.104;20.730;2022-09-06T13:54:14;100228.38;;;26.70;36.87
61296;BME280;47168;48.104;20.730;2022-09-06T13:56:40;100222.44;;;26.27;37.94
61296;BME280;47168;48.104;20.730;2022-09-06T13:59:09;100228.50;;;25.94;39.09
61296;BME280;47168;48.104;20.730;2022-09-06T14:01:35;100232.44;;;25.91;38.93
61296;BME280;47168;48.104;20.730;2022-09-06T14:04:01;100220.16;;;25.88;39.57
61296;BME280;47168;48.104;20.730;2022-09-06T14:06:26;100215.75;;;25.81;38.94
61296;BME280;47168;48.104;20.730;2022-09-06T14:08:52;100213.16;;;25.66;39.83
61296;BME280;47168;48.104;20.730;2022-09-06T14:11:17;100207.69;;;25.52;40.79
61296;BME280;47168;48.104;20.730;2022-09-06T14:13:43;100206.53;;;25.33;41.16
61296;BME280;47168;48.104;20.730;2022-09-06T14:16:09;100211.56;;;25.15;42.47